Time;durP1;ratioP1;P1;durP2;ratioP2;P2;SDS_P1;SDS_P2;PMS_P1;PMS_P2;Temp;Humidity;BMP_temperature;BMP_pressure;BME280_temperature;BME280_humidity;BME280_pressure;Samples;Min_cycle;Max_cycle;Signal;HPM_P1;HPM_P2
2021/10/30 00:00:08;;;;;;;15.50;10.90;;;8.80;99.90;;;;;;5053186;28;20212;-74
2021/10/30 00:02:35;;;;;;;13.63;9.55;;;8.80;99.90;;;;;;5053520;28;20249;-74
2021/10/30 00:05:02;;;;;;;14.20;9.48;;;8.90;99.90;;;;;;5053259;28;20233;-74
2021/10/30 00:07:29;;;;;;;14.38;8.88;;;8.90;99.90;;;;;;5053261;28;20286;-74
2021/10/30 00:09:55;;;;;;;16.65;9.93;;;8.70;99.90;;;;;;5053220;28;20701;-74
2021/10/30 00:12:22;;;;;;;15.63;9.88;;;8.50;99.90;;;;;;5052973;28;20223;-74
2021/10/30 00:14:49;;;;;;;14.13;10.35;;;8.30;99.90;;;;;;5053457;28;20229;-74
2021/10/30 00:17:17;;;;;;;14.32;9.00;;;8.30;99.90;;;;;;5053522;28;20203;-74
2021/10/30 00:19:44;;;;;;;13.55;9.55;;;8.20;99.90;;;;;;5053352;28;20199;-73
2021/10/30 00:22:11;;;;;;;14.38;9.73;;;8.20;99.90;;;;;;5053154;28;20219;-73
2021/10/30 00:24:38;;;;;;;14.93;9.15;;;8.20;99.90;;;;;;5053204;28;20205;-74
2021/10/30 00:27:08;;;;;;;14.65;9.23;;;8.10;99.90;;;;;;5053322;28;20235;-74
2021/10/30 00:29:35;;;;;;;13.23;9.68;;;8.00;99.90;;;;;;5053301;28;20586;-74
2021/10/30 00:32:02;;;;;;;15.20;9.98;;;8.20;99.90;;;;;;5052799;28;20227;-73
2021/10/30 00:34:30;;;;;;;15.55;9.07;;;8.30;99.90;;;;;;5052960;28;20203;-74
2021/10/30 00:36:57;;;;;;;17.02;10.40;;;8.20;99.90;;;;;;5053266;28;20199;-74
2021/10/30 00:39:24;;;;;;;15.27;10.02;;;8.10;99.90;;;;;;5053225;28;20290;-74
2021/10/30 00:41:53;;;;;;;16.58;9.95;;;7.90;99.90;;;;;;5052725;28;20223;-73
2021/10/30 00:44:21;;;;;;;14.68;9.80;;;7.80;99.90;;;;;;5052878;28;20207;-74
2021/10/30 00:46:49;;;;;;;15.60;9.85;;;7.80;99.90;;;;;;5053125;28;20306;-74
2021/10/30 00:49:18;;;;;;;11.32;8.50;;;8.00;99.90;;;;;;5052839;28;20222;-74
2021/10/30 00:51:51;;;;;;;14.07;9.80;;;8.10;99.90;;;;;;5052925;28;20229;-73
2021/10/30 00:54:19;;;;;;;13.65;9.13;;;8.20;99.90;;;;;;5053009;28;20689;-74
2021/10/30 00:56:47;;;;;;;13.88;9.10;;;8.20;99.90;;;;;;5053170;28;20298;-74
2021/10/30 00:59:16;;;;;;;14.25;8.25;;;8.00;99.90;;;;;;5052939;28;20199;-74
2021/10/30 01:01:45;;;;;;;16.83;9.45;;;8.10;99.90;;;;;;5052765;28;20273;-73
2021/10/30 01:04:13;;;;;;;15.20;8.48;;;8.10;99.90;;;;;;5052688;28;20290;-74
2021/10/30 01:06:43;;;;;;;11.55;8.10;;;8.00;99.90;;;;;;5053196;28;20299;-74
2021/10/30 01:09:11;;;;;;;18.27;9.35;;;7.90;99.90;;;;;;5052906;28;20220;-73
2021/10/30 01:11:39;;;;;;;14.02;8.88;;;8.00;99.90;;;;;;5052594;28;20314;-73
2021/10/30 01:14:08;;;;;;;13.32;8.40;;;8.20;99.90;;;;;;5052690;28;20565;-74
2021/10/30 01:16:35;;;;;;;12.43;8.88;;;8.20;99.90;;;;;;5052905;28;20200;-74
2021/10/30 01:19:02;;;;;;;13.63;8.65;;;8.30;99.90;;;;;;5052820;28;20247;-74
2021/10/30 01:21:33;;;;;;;14.85;8.73;;;8.30;99.90;;;;;;5052596;28;20232;-73
2021/10/30 01:24:02;;;;;;;12.73;8.95;;;8.40;99.90;;;;;;5052766;28;20209;-74
2021/10/30 01:26:30;;;;;;;11.70;8.85;;;8.40;99.90;;;;;;5056163;28;20206;-74
2021/10/30 01:28:56;;;;;;;15.18;9.38;;;8.40;99.90;;;;;;5056267;28;20203;-74
2021/10/30 01:31:24;;;;;;;11.40;8.10;;;8.50;99.90;;;;;;5056089;28;20227;-73
2021/10/30 01:33:51;;;;;;;15.80;9.10;;;8.50;99.90;;;;;;5056224;28;20226;-74
2021/10/30 01:36:20;;;;;;;12.38;8.80;;;8.40;99.90;;;;;;5056189;28;20551;-74
2021/10/30 01:38:50;;;;;;;13.45;8.52;;;8.40;99.90;;;;;;5056094;28;20199;-74
2021/10/30 01:41:17;;;;;;;10.13;7.45;;;8.40;99.90;;;;;;5055926;28;20310;-74
2021/10/30 01:43:45;;;;;;;11.90;8.00;;;8.40;99.90;;;;;;5056041;28;20203;-74
2021/10/30 01:46:11;;;;;;;12.00;8.50;;;8.40;99.90;;;;;;5055852;28;20293;-74
2021/10/30 01:48:39;;;;;;;12.90;8.10;;;8.50;99.90;;;;;;5055854;28;20203;-74
2021/10/30 01:51:07;;;;;;;13.43;8.80;;;8.40;99.90;;;;;;5055400;28;20322;-73
2021/10/30 01:53:35;;;;;;;12.82;8.55;;;8.30;99.90;;;;;;5055849;28;20203;-74
2021/10/30 01:56:04;;;;;;;10.30;7.65;;;8.30;99.90;;;;;;5055831;28;20207;-74
2021/10/30 01:58:30;;;;;;;11.43;8.32;;;8.40;99.90;;;;;;5055787;28;20298;-74
2021/10/30 02:00:59;;;;;;;14.30;8.63;;;8.40;99.90;;;;;;5055305;28;20727;-73
2021/10/30 02:03:29;;;;;;;12.93;9.13;;;8.20;99.90;;;;;;5055677;28;20298;-74
2021/10/30 02:05:56;;;;;;;15.38;8.93;;;8.30;99.90;;;;;;5055318;28;20253;-74
2021/10/30 02:08:23;;;;;;;14.13;8.77;;;8.20;99.90;;;;;;5055583;28;20207;-74
2021/10/30 02:10:50;;;;;;;15.45;9.82;;;8.10;99.90;;;;;;5055228;28;20228;-74
2021/10/30 02:13:19;;;;;;;10.77;8.70;;;8.10;99.90;;;;;;5055184;28;20203;-74
2021/10/30 02:15:46;;;;;;;11.82;9.10;;;8.20;99.90;;;;;;5055453;28;20661;-74
2021/10/30 02:18:13;;;;;;;15.27;9.50;;;8.20;99.90;;;;;;5055380;28;20210;-74
2021/10/30 02:20:40;;;;;;;10.77;8.30;;;8.20;99.90;;;;;;5055232;28;20223;-73
2021/10/30 02:23:07;;;;;;;12.70;8.75;;;8.10;99.90;;;;;;5055337;28;20207;-73
2021/10/30 02:25:34;;;;;;;13.38;8.65;;;8.10;99.90;;;;;;5055285;28;20204;-74
2021/10/30 02:28:01;;;;;;;16.33;9.30;;;8.10;99.90;;;;;;5055214;28;20206;-74
2021/10/30 02:30:29;;;;;;;13.25;8.85;;;8.00;99.90;;;;;;5054918;28;20243;-73
2021/10/30 02:32:56;;;;;;;13.57;8.30;;;8.10;99.90;;;;;;5054617;28;20242;-73
2021/10/30 02:35:23;;;;;;;13.15;8.60;;;8.10;99.90;;;;;;5054949;28;20239;-74
2021/10/30 02:37:50;;;;;;;13.10;8.82;;;7.90;99.90;;;;;;5055021;28;20295;-73
2021/10/30 02:40:17;;;;;;;13.18;8.23;;;8.00;99.90;;;;;;5054765;28;20662;-73
2021/10/30 02:42:44;;;;;;;12.55;9.10;;;8.00;99.90;;;;;;5054750;28;20624;-73
2021/10/30 02:45:11;;;;;;;10.77;8.30;;;8.00;99.90;;;;;;5054893;28;20206;-74
2021/10/30 02:47:39;;;;;;;14.57;9.15;;;7.90;99.90;;;;;;5054771;28;20207;-73
2021/10/30 02:50:07;;;;;;;15.73;8.98;;;8.00;99.90;;;;;;5054560;28;20662;-74
2021/10/30 02:52:34;;;;;;;16.83;11.60;;;8.10;99.90;;;;;;5054514;28;20199;-74
2021/10/30 02:55:00;;;;;;;13.35;8.73;;;8.10;99.90;;;;;;5054724;28;20232;-73
2021/10/30 02:57:27;;;;;;;14.63;9.32;;;8.10;99.90;;;;;;5054681;28;20204;-73
2021/10/30 02:59:54;;;;;;;13.63;9.43;;;8.10;99.90;;;;;;5054293;28;20238;-73
2021/10/30 03:02:21;;;;;;;11.60;9.10;;;8.10;99.90;;;;;;5054383;28;20242;-73
2021/10/30 03:04:49;;;;;;;13.27;8.65;;;8.00;99.90;;;;;;5054536;28;20203;-74
2021/10/30 03:07:18;;;;;;;11.63;8.48;;;7.70;99.90;;;;;;5054473;28;20208;-73
2021/10/30 03:09:49;;;;;;;14.57;8.98;;;7.50;99.90;;;;;;5054339;28;20246;-73
2021/10/30 03:12:16;;;;;;;14.95;9.55;;;7.40;99.90;;;;;;5054150;28;20577;-74
2021/10/30 03:14:43;;;;;;;12.65;8.88;;;7.30;99.90;;;;;;5054213;28;20299;-73
2021/10/30 03:17:10;;;;;;;12.07;9.30;;;7.30;99.90;;;;;;5054033;28;20294;-73
2021/10/30 03:19:37;;;;;;;13.68;9.05;;;7.50;99.90;;;;;;5054253;28;20206;-74
2021/10/30 03:22:05;;;;;;;12.02;8.90;;;7.50;99.90;;;;;;5054047;28;20666;-73
2021/10/30 03:24:32;;;;;;;14.05;9.18;;;7.60;99.90;;;;;;5054167;28;20242;-74
2021/10/30 03:26:59;;;;;;;15.60;9.38;;;7.70;99.90;;;;;;5054138;28;20632;-74
2021/10/30 03:29:26;;;;;;;12.80;8.45;;;7.60;99.90;;;;;;5053713;28;20199;-73
2021/10/30 03:31:53;;;;;;;12.93;8.50;;;7.50;99.90;;;;;;5053831;28;20231;-74
2021/10/30 03:34:20;;;;;;;12.77;8.27;;;7.50;99.90;;;;;;5053816;28;20294;-74
2021/10/30 03:36:47;;;;;;;11.68;9.23;;;7.40;99.90;;;;;;5053944;28;20290;-73
2021/10/30 03:39:15;;;;;;;12.02;7.95;;;7.50;99.90;;;;;;5053798;28;20677;-73
2021/10/30 03:41:42;;;;;;;16.83;9.20;;;7.60;99.90;;;;;;5053487;28;20255;-73
2021/10/30 03:44:08;;;;;;;15.40;8.60;;;7.60;99.90;;;;;;5053908;28;20225;-73
2021/10/30 03:46:35;;;;;;;12.25;9.25;;;7.60;99.90;;;;;;5053813;28;20624;-74
2021/10/30 03:49:02;;;;;;;17.85;9.43;;;7.60;99.90;;;;;;5053128;28;20208;-74
2021/10/30 03:51:29;;;;;;;12.93;9.18;;;7.60;99.90;;;;;;5053262;28;20314;-73
2021/10/30 03:53:56;;;;;;;12.85;9.35;;;7.50;99.90;;;;;;5054165;28;20239;-74
2021/10/30 03:56:24;;;;;;;14.23;8.65;;;7.40;99.90;;;;;;5053632;28;20300;-74
2021/10/30 03:58:51;;;;;;;15.70;9.43;;;7.40;99.90;;;;;;5053679;28;20203;-74
2021/10/30 04:01:17;;;;;;;16.80;8.43;;;7.30;99.90;;;;;;5053020;28;20231;-73
2021/10/30 04:03:45;;;;;;;18.52;10.00;;;7.30;99.90;;;;;;5053602;28;20298;-73
2021/10/30 04:06:11;;;;;;;16.63;9.82;;;7.20;99.90;;;;;;5053463;28;20658;-74
2021/10/30 04:08:38;;;;;;;13.25;8.70;;;7.20;99.90;;;;;;5053447;28;20209;-74
2021/10/30 04:11:05;;;;;;;12.60;8.32;;;7.30;99.90;;;;;;5052937;28;20322;-73
2021/10/30 04:13:33;;;;;;;15.38;8.27;;;7.40;99.90;;;;;;5053423;28;20290;-73
2021/10/30 04:16:00;;;;;;;13.55;8.95;;;7.40;99.90;;;;;;5053510;28;20290;-73
2021/10/30 04:18:27;;;;;;;12.20;8.45;;;7.50;99.90;;;;;;5053303;28;20235;-74
2021/10/30 04:20:54;;;;;;;14.05;9.90;;;7.30;99.90;;;;;;5053330;28;20223;-74
2021/10/30 04:23:21;;;;;;;15.23;9.45;;;7.40;99.90;;;;;;5053002;28;20306;-73
2021/10/30 04:25:47;;;;;;;12.82;8.15;;;7.20;99.90;;;;;;5053340;28;20199;-74
2021/10/30 04:28:14;;;;;;;11.68;8.35;;;7.30;99.90;;;;;;5053149;28;20298;-73
2021/10/30 04:30:42;;;;;;;11.75;8.57;;;7.40;99.90;;;;;;5053180;28;20333;-73
2021/10/30 04:33:13;;;;;;;15.27;8.93;;;7.40;99.90;;;;;;5053033;28;20214;-73
2021/10/30 04:35:41;;;;;;;13.85;9.63;;;7.40;99.90;;;;;;5053324;28;20208;-73
2021/10/30 04:38:08;;;;;;;13.90;8.73;;;7.30;99.90;;;;;;5053284;28;20253;-74
2021/10/30 04:40:35;;;;;;;12.48;8.13;;;7.10;99.90;;;;;;5053138;28;20559;-74
2021/10/30 04:43:04;;;;;;;14.85;9.63;;;7.10;99.90;;;;;;5053085;28;20207;-73
2021/10/30 04:45:31;;;;;;;15.18;9.35;;;6.90;99.90;;;;;;5053074;28;20298;-74
2021/10/30 04:48:00;;;;;;;14.05;9.10;;;6.90;99.90;;;;;;5053178;28;20210;-74
2021/10/30 04:50:27;;;;;;;14.50;8.88;;;7.00;99.90;;;;;;5052931;28;20242;-73
2021/10/30 04:52:53;;;;;;;18.52;9.65;;;7.00;99.90;;;;;;5052986;28;20294;-73
2021/10/30 04:55:20;;;;;;;14.43;9.10;;;6.90;99.90;;;;;;5053112;28;20235;-73
2021/10/30 04:57:47;;;;;;;12.20;9.18;;;6.90;99.90;;;;;;5053083;28;20235;-73
2021/10/30 05:00:15;;;;;;;13.95;8.63;;;6.90;99.90;;;;;;5054343;28;20703;-73
2021/10/30 05:02:41;;;;;;;13.20;7.88;;;7.00;99.90;;;;;;5056769;28;20222;-73
2021/10/30 05:05:10;;;;;;;14.18;8.57;;;7.10;99.90;;;;;;5056697;28;20760;-74
2021/10/30 05:07:37;;;;;;;13.88;8.30;;;7.20;99.90;;;;;;5056789;28;20573;-74
2021/10/30 05:10:04;;;;;;;14.02;8.07;;;7.30;99.90;;;;;;5056630;28;20214;-74
2021/10/30 05:12:31;;;;;;;14.52;9.18;;;7.30;99.90;;;;;;5056292;28;20227;-73
2021/10/30 05:14:57;;;;;;;11.80;9.40;;;7.30;99.90;;;;;;5056609;28;20294;-73
2021/10/30 05:17:24;;;;;;;11.57;8.20;;;7.20;99.90;;;;;;5056489;28;20772;-73
2021/10/30 05:19:51;;;;;;;12.20;9.02;;;7.20;99.90;;;;;;5056462;28;20298;-73
2021/10/30 05:22:19;;;;;;;15.98;9.70;;;7.20;99.90;;;;;;5056033;28;20226;-73
2021/10/30 05:24:46;;;;;;;13.75;9.20;;;7.20;99.90;;;;;;5056445;28;20294;-73
2021/10/30 05:27:13;;;;;;;12.75;8.73;;;7.30;99.90;;;;;;5056417;28;20229;-73
2021/10/30 05:29:40;;;;;;;13.82;9.25;;;7.30;99.90;;;;;;5056363;28;20210;-73
2021/10/30 05:32:07;;;;;;;17.23;10.25;;;7.30;99.90;;;;;;5056144;28;20318;-73
2021/10/30 05:34:34;;;;;;;15.65;10.68;;;7.30;99.90;;;;;;5056016;28;20658;-73
2021/10/30 05:37:01;;;;;;;11.50;8.10;;;7.20;99.90;;;;;;5056216;28;20238;-73
2021/10/30 05:39:29;;;;;;;14.15;9.13;;;7.10;99.90;;;;;;5056026;28;20739;-73
2021/10/30 05:41:56;;;;;;;11.73;8.90;;;7.10;99.90;;;;;;5055627;28;20255;-73
2021/10/30 05:44:23;;;;;;;12.35;8.65;;;7.10;99.90;;;;;;5056002;28;20211;-73
2021/10/30 05:46:50;;;;;;;12.35;8.43;;;7.10;99.90;;;;;;5055726;28;20207;-73
2021/10/30 05:49:18;;;;;;;15.10;9.48;;;7.20;99.90;;;;;;5055950;28;20298;-73
2021/10/30 05:51:45;;;;;;;12.45;8.10;;;7.00;99.90;;;;;;5055419;28;20231;-73
2021/10/30 05:54:12;;;;;;;14.52;9.55;;;6.90;99.90;;;;;;5055774;28;20204;-73
2021/10/30 05:56:40;;;;;;;16.00;8.27;;;6.90;99.90;;;;;;5055846;28;20199;-73
2021/10/30 05:59:07;;;;;;;11.05;7.53;;;6.70;99.90;;;;;;5055687;28;20737;-73
2021/10/30 06:01:34;;;;;;;14.52;9.13;;;6.70;99.90;;;;;;5055164;28;20227;-73
2021/10/30 06:04:01;;;;;;;11.77;8.18;;;6.70;99.90;;;;;;5055714;28;20298;-73
2021/10/30 06:06:28;;;;;;;12.27;8.55;;;6.80;99.90;;;;;;5055503;28;20210;-73
2021/10/30 06:08:55;;;;;;;11.30;7.63;;;6.80;99.90;;;;;;5055626;28;20214;-73
2021/10/30 06:11:21;;;;;;;15.18;9.35;;;6.70;99.90;;;;;;5054716;28;20685;-73
2021/10/30 06:13:50;;;;;;;9.93;6.75;;;6.70;99.90;;;;;;5055435;28;20682;-73
2021/10/30 06:16:17;;;;;;;15.32;9.10;;;6.70;99.90;;;;;;5055431;28;20203;-73
2021/10/30 06:18:43;;;;;;;13.38;8.60;;;6.60;99.90;;;;;;5055215;28;20207;-73
2021/10/30 06:21:10;;;;;;;15.20;7.80;;;6.50;99.90;;;;;;5055066;28;20215;-73
2021/10/30 06:23:37;;;;;;;13.63;9.55;;;6.50;99.90;;;;;;5055215;28;20689;-73
2021/10/30 06:26:04;;;;;;;13.68;8.70;;;6.40;99.90;;;;;;5055270;28;20306;-73
2021/10/30 06:28:31;;;;;;;15.38;8.93;;;6.30;99.90;;;;;;5055666;28;20717;-73
2021/10/30 06:31:00;;;;;;;10.70;7.88;;;6.40;99.90;;;;;;5055101;28;20237;-73
2021/10/30 06:33:26;;;;;;;11.82;7.88;;;6.50;99.90;;;;;;5055104;28;20210;-73
2021/10/30 06:35:53;;;;;;;13.98;8.50;;;6.60;99.90;;;;;;5055149;28;20710;-74
2021/10/30 06:38:20;;;;;;;15.48;9.40;;;6.70;99.90;;;;;;5055110;28;20294;-74
2021/10/30 06:40:47;;;;;;;15.55;9.13;;;6.60;99.90;;;;;;5054927;28;20310;-73
2021/10/30 06:43:13;;;;;;;11.05;7.68;;;6.60;99.90;;;;;;5054799;28;20209;-73
2021/10/30 06:45:40;;;;;;;12.80;8.00;;;6.60;99.90;;;;;;5054738;28;20657;-74
2021/10/30 06:48:08;;;;;;;13.05;8.07;;;6.60;99.90;;;;;;5054902;28;20294;-73
2021/10/30 06:50:35;;;;;;;12.07;8.27;;;6.70;99.90;;;;;;5054646;28;20310;-73
2021/10/30 06:53:02;;;;;;;16.52;9.18;;;6.80;99.90;;;;;;5054615;28;20203;-73
2021/10/30 06:55:29;;;;;;;12.40;8.00;;;6.90;99.90;;;;;;5054663;28;20298;-73
2021/10/30 06:57:56;;;;;;;14.38;8.55;;;7.00;99.90;;;;;;5054714;28;20200;-74
2021/10/30 07:00:23;;;;;;;14.27;8.73;;;7.10;99.90;;;;;;5054419;28;20302;-73
2021/10/30 07:02:52;;;;;;;14.73;9.27;;;7.10;99.90;;;;;;5054410;28;20203;-74
2021/10/30 07:05:22;;;;;;;12.45;8.23;;;7.00;99.90;;;;;;5054439;28;20745;-73
2021/10/30 07:07:49;;;;;;;12.30;8.20;;;6.80;99.90;;;;;;5054245;28;20620;-73
2021/10/30 07:10:16;;;;;;;12.15;7.53;;;6.70;99.90;;;;;;5054351;28;20577;-73
2021/10/30 07:12:43;;;;;;;16.30;9.57;;;6.60;99.90;;;;;;5054168;28;20223;-73
2021/10/30 07:15:12;;;;;;;13.00;8.32;;;6.50;99.90;;;;;;5054375;28;20207;-73
2021/10/30 07:17:39;;;;;;;17.20;9.50;;;6.50;99.90;;;;;;5054305;28;20203;-73
2021/10/30 07:20:07;;;;;;;11.35;8.00;;;6.70;99.90;;;;;;5054283;28;20546;-73
2021/10/30 07:22:42;;;;;;;13.48;8.15;;;6.70;99.90;;;;;;5053298;28;20200;-73
2021/10/30 07:25:09;;;;;;;13.38;8.65;;;6.90;99.90;;;;;;5054193;28;20207;-73
2021/10/30 07:27:36;;;;;;;12.55;8.80;;;7.10;99.90;;;;;;5054114;28;20294;-73
2021/10/30 07:30:03;;;;;;;14.10;8.80;;;7.30;99.90;;;;;;5053957;28;20737;-73
2021/10/30 07:32:30;;;;;;;14.07;8.80;;;7.20;99.90;;;;;;5053490;28;20711;-73
2021/10/30 07:34:57;;;;;;;15.32;8.90;;;7.30;99.90;;;;;;5053994;28;20298;-73
2021/10/30 07:37:23;;;;;;;12.32;8.10;;;7.40;99.90;;;;;;5054024;28;20294;-73
2021/10/30 07:39:52;;;;;;;13.88;9.73;;;7.50;99.90;;;;;;5053752;28;20203;-73
2021/10/30 07:42:19;;;;;;;14.13;9.20;;;7.60;99.90;;;;;;5053685;28;20219;-73
2021/10/30 07:44:46;;;;;;;14.02;9.55;;;7.60;99.90;;;;;;5053677;28;20294;-73
2021/10/30 07:47:13;;;;;;;13.55;8.40;;;7.60;99.90;;;;;;5053789;28;20206;-73
2021/10/30 07:49:40;;;;;;;12.40;8.82;;;7.70;99.90;;;;;;5053693;28;20199;-73
2021/10/30 07:52:10;;;;;;;13.80;9.48;;;7.60;99.90;;;;;;5053443;28;20585;-73
2021/10/30 07:54:37;;;;;;;15.02;9.20;;;7.70;99.90;;;;;;5053496;28;20729;-73
2021/10/30 07:57:07;;;;;;;14.75;7.40;;;7.90;99.90;;;;;;5053665;28;20210;-73
2021/10/30 07:59:34;;;;;;;12.55;8.63;;;7.90;99.90;;;;;;5053474;28;20209;-73
2021/10/30 08:02:02;;;;;;;15.63;9.63;;;7.90;99.90;;;;;;5053250;28;20245;-73
2021/10/30 08:04:30;;;;;;;18.48;9.82;;;8.10;99.90;;;;;;5053346;28;20207;-73
2021/10/30 08:06:57;;;;;;;12.65;8.68;;;8.20;99.90;;;;;;5053549;28;20203;-73
2021/10/30 08:09:24;;;;;;;12.85;8.30;;;8.30;99.90;;;;;;5053552;28;20257;-73
2021/10/30 08:11:51;;;;;;;15.68;9.48;;;8.40;99.90;;;;;;5052962;28;20238;-73
2021/10/30 08:14:19;;;;;;;13.02;8.95;;;8.50;99.90;;;;;;5053476;28;20242;-74
2021/10/30 08:16:46;;;;;;;14.75;9.25;;;8.60;99.90;;;;;;5053378;28;20294;-73
2021/10/30 08:19:13;;;;;;;11.48;8.05;;;8.70;99.90;;;;;;5053416;28;20246;-74
2021/10/30 08:21:40;;;;;;;14.40;9.40;;;8.70;99.90;;;;;;5053222;28;20310;-73
2021/10/30 08:24:07;;;;;;;14.45;9.60;;;8.80;99.90;;;;;;5053215;28;20683;-73
2021/10/30 08:26:35;;;;;;;13.70;9.18;;;8.90;99.90;;;;;;5053279;28;20293;-73
2021/10/30 08:29:03;;;;;;;15.48;9.40;;;8.90;99.90;;;;;;5053339;28;20231;-73
2021/10/30 08:31:32;;;;;;;13.77;9.32;;;9.00;99.90;;;;;;5053036;28;20227;-73
2021/10/30 08:33:59;;;;;;;13.82;9.55;;;9.10;99.90;;;;;;5054711;28;20199;-73
2021/10/30 08:36:27;;;;;;;12.70;8.10;;;9.30;99.90;;;;;;5057196;28;20293;-74
2021/10/30 08:38:54;;;;;;;15.68;9.32;;;9.40;99.90;;;;;;5057017;28;20210;-73
2021/10/30 08:41:21;;;;;;;12.27;8.55;;;9.40;99.90;;;;;;5056891;28;20219;-73
2021/10/30 08:43:49;;;;;;;12.48;9.25;;;9.40;99.90;;;;;;5057178;28;20294;-73
2021/10/30 08:46:18;;;;;;;16.33;9.60;;;9.20;99.90;;;;;;5056964;28;20203;-74
2021/10/30 08:48:47;;;;;;;12.50;8.88;;;9.30;99.90;;;;;;5056949;28;20299;-73
2021/10/30 08:51:15;;;;;;;13.40;8.43;;;9.40;99.90;;;;;;5056739;28;20227;-73
2021/10/30 08:53:42;;;;;;;14.27;9.85;;;9.50;99.90;;;;;;5057093;28;20234;-73
2021/10/30 08:56:09;;;;;;;14.10;9.50;;;9.60;99.90;;;;;;5057495;28;20210;-73
2021/10/30 08:58:36;;;;;;;13.57;10.00;;;9.70;99.90;;;;;;5056711;28;20207;-74
2021/10/30 09:01:06;;;;;;;13.77;9.25;;;9.90;99.90;;;;;;5056431;28;20280;-73
2021/10/30 09:03:33;;;;;;;16.55;10.25;;;9.80;99.90;;;;;;5056858;28;20207;-73
2021/10/30 09:06:01;;;;;;;13.98;9.55;;;9.80;99.90;;;;;;5056814;28;20568;-73
2021/10/30 09:08:29;;;;;;;12.48;8.98;;;9.80;99.90;;;;;;5056791;28;20294;-74
2021/10/30 09:10:57;;;;;;;15.00;9.18;;;9.90;99.90;;;;;;5056550;28;20234;-74
2021/10/30 09:13:29;;;;;;;11.48;8.30;;;10.00;99.90;;;;;;5056497;28;20223;-74
2021/10/30 09:15:57;;;;;;;15.48;9.82;;;10.20;99.90;;;;;;5056720;28;20208;-74
2021/10/30 09:18:29;;;;;;;13.90;9.63;;;10.30;99.90;;;;;;5056579;28;20203;-74
2021/10/30 09:20:58;;;;;;;12.05;8.45;;;10.20;99.90;;;;;;5056938;28;20293;-73
2021/10/30 09:23:31;;;;;;;11.88;9.23;;;10.30;99.90;;;;;;5056434;28;20222;-73
2021/10/30 09:26:00;;;;;;;13.85;9.10;;;10.40;99.90;;;;;;5056707;28;20207;-74
2021/10/30 09:28:29;;;;;;;16.38;10.25;;;10.50;99.90;;;;;;5056738;28;20235;-73
2021/10/30 09:30:59;;;;;;;12.05;9.30;;;10.50;99.90;;;;;;5056065;28;20720;-73
2021/10/30 09:33:27;;;;;;;12.75;8.23;;;10.50;99.90;;;;;;5056148;28;20223;-74
2021/10/30 09:35:55;;;;;;;13.65;8.57;;;10.50;99.90;;;;;;5056170;28;20204;-74
2021/10/30 09:38:31;;;;;;;13.27;9.13;;;10.60;99.90;;;;;;5056254;28;20211;-74
2021/10/30 09:40:59;;;;;;;13.88;10.10;;;10.60;99.90;;;;;;5056024;28;20265;-73
2021/10/30 09:43:26;;;;;;;12.93;9.45;;;10.60;99.90;;;;;;5055987;28;20666;-74
2021/10/30 09:45:55;;;;;;;13.25;9.77;;;10.70;99.90;;;;;;5055143;28;20684;-74
2021/10/30 09:48:24;;;;;;;15.23;9.70;;;10.80;99.90;;;;;;5055996;28;20199;-73
2021/10/30 09:50:53;;;;;;;13.70;9.18;;;10.80;99.90;;;;;;5055980;28;20566;-74
2021/10/30 09:53:32;;;;;;;14.15;9.35;;;10.80;99.90;;;;;;5055490;28;20705;-74
2021/10/30 09:56:01;;;;;;;15.50;9.45;;;10.70;99.90;;;;;;5055987;28;20296;-73
2021/10/30 09:58:39;;;;;;;16.50;10.35;;;10.70;99.90;;;;;;5055840;28;20286;-74
2021/10/30 10:01:09;;;;;;;13.00;9.38;;;10.70;99.90;;;;;;5055250;28;20234;-73
2021/10/30 10:03:37;;;;;;;11.93;9.70;;;10.80;99.90;;;;;;5055739;28;20328;-74
2021/10/30 10:06:06;;;;;;;14.30;10.43;;;10.70;99.90;;;;;;5055708;28;20211;-73
2021/10/30 10:08:37;;;;;;;12.63;9.57;;;10.70;99.90;;;;;;5055529;28;20235;-73
2021/10/30 10:11:06;;;;;;;17.15;9.80;;;10.70;99.90;;;;;;5055402;28;20238;-73
2021/10/30 10:13:34;;;;;;;13.30;8.85;;;10.60;99.90;;;;;;5055449;28;20238;-73
2021/10/30 10:16:02;;;;;;;15.20;10.73;;;10.60;99.90;;;;;;5055513;28;20293;-73
2021/10/30 10:18:29;;;;;;;15.75;11.75;;;10.70;99.90;;;;;;5055483;28;20563;-73
2021/10/30 10:20:56;;;;;;;18.58;10.43;;;10.70;99.90;;;;;;5055357;28;20314;-73
2021/10/30 10:23:23;;;;;;;16.58;10.65;;;10.80;99.90;;;;;;5055275;28;20206;-73
2021/10/30 10:25:55;;;;;;;16.52;9.88;;;10.70;99.90;;;;;;5055311;28;20209;-73
2021/10/30 10:28:33;;;;;;;15.13;10.60;;;10.60;99.90;;;;;;5055345;28;20203;-73
2021/10/30 10:31:03;;;;;;;12.95;9.63;;;10.50;99.90;;;;;;5055048;28;20647;-73
2021/10/30 10:33:31;;;;;;;13.70;9.65;;;10.30;99.90;;;;;;5054978;28;20317;-74
2021/10/30 10:36:26;;;;;;;13.85;10.40;;;10.30;99.90;;;;;;5055168;28;20563;-74
2021/10/30 10:39:29;;;;;;;13.40;9.98;;;10.30;99.90;;;;;;5055113;28;20203;-74
2021/10/30 10:41:59;;;;;;;16.23;10.48;;;10.30;99.90;;;;;;5054963;28;20596;-74
2021/10/30 10:45:01;;;;;;;20.83;11.23;;;10.40;99.90;;;;;;5054992;28;20293;-74
2021/10/30 10:48:04;;;;;;;14.75;10.82;;;10.50;99.90;;;;;;5054937;28;20202;-74
2021/10/30 10:50:50;;;;;;;13.60;10.15;;;10.50;99.90;;;;;;5054799;28;20627;-74
2021/10/30 10:53:35;;;;;;;14.73;10.25;;;10.60;99.90;;;;;;5054602;28;20276;-74
2021/10/30 10:56:20;;;;;;;14.30;9.27;;;10.70;99.90;;;;;;5054772;28;20618;-74
2021/10/30 10:59:15;;;;;;;16.52;10.15;;;10.80;99.90;;;;;;5054761;28;20538;-74
2021/10/30 11:02:21;;;;;;;14.40;10.35;;;10.90;99.90;;;;;;5054445;28;20563;-74
2021/10/30 11:05:26;;;;;;;14.82;10.70;;;10.90;99.90;;;;;;5054619;28;20250;-74
2021/10/30 11:08:23;;;;;;;16.25;11.25;;;11.00;99.90;;;;;;5054706;28;20200;-74
2021/10/30 11:11:27;;;;;;;15.10;11.32;;;11.00;99.90;;;;;;5054211;28;20725;-74
2021/10/30 11:13:57;;;;;;;14.05;11.25;;;11.00;99.90;;;;;;5054342;28;20251;-74
2021/10/30 11:16:39;;;;;;;16.05;10.43;;;10.90;99.90;;;;;;5054763;28;20562;-74
2021/10/30 11:19:17;;;;;;;16.67;10.38;;;10.90;99.90;;;;;;5054367;28;20289;-74
2021/10/30 11:21:46;;;;;;;13.90;9.35;;;10.90;99.90;;;;;;5053889;28;20582;-74
2021/10/30 11:24:17;;;;;;;14.02;10.07;;;11.00;99.90;;;;;;5054127;28;20195;-74
2021/10/30 11:26:45;;;;;;;15.00;9.65;;;11.00;99.90;;;;;;5053964;28;20245;-74
2021/10/30 11:29:13;;;;;;;12.35;10.20;;;11.10;99.90;;;;;;5053954;28;20234;-74
2021/10/30 11:31:43;;;;;;;16.60;10.60;;;11.10;99.90;;;;;;5053936;28;20219;-74
2021/10/30 11:34:11;;;;;;;14.73;9.40;;;11.10;99.90;;;;;;5053947;28;20227;-74
2021/10/30 11:36:41;;;;;;;14.93;9.80;;;11.20;99.90;;;;;;5053942;28;20203;-74
2021/10/30 11:39:09;;;;;;;17.00;11.45;;;11.20;99.90;;;;;;5053970;28;20214;-74
2021/10/30 11:41:38;;;;;;;17.38;10.25;;;11.20;99.90;;;;;;5053761;28;20251;-74
2021/10/30 11:44:07;;;;;;;13.18;9.40;;;11.20;99.90;;;;;;5053907;28;20199;-74
2021/10/30 11:46:39;;;;;;;15.98;10.85;;;11.20;99.90;;;;;;5053729;28;20680;-74
2021/10/30 11:49:08;;;;;;;12.88;10.20;;;11.30;99.90;;;;;;5053801;28;20761;-74
2021/10/30 11:51:41;;;;;;;17.85;10.80;;;11.30;99.90;;;;;;5053556;28;20310;-74
2021/10/30 11:54:10;;;;;;;17.55;11.80;;;11.50;99.90;;;;;;5053464;28;20219;-74
2021/10/30 11:56:37;;;;;;;15.93;11.20;;;11.60;99.90;;;;;;5053689;28;20204;-74
2021/10/30 11:59:06;;;;;;;14.07;10.10;;;11.50;99.90;;;;;;5053642;28;20207;-74
2021/10/30 12:01:34;;;;;;;16.17;10.52;;;11.40;99.90;;;;;;5053108;28;20231;-73
2021/10/30 12:04:10;;;;;;;17.92;11.65;;;11.00;99.90;;;;;;5053573;28;20203;-74
2021/10/30 12:06:38;;;;;;;17.80;11.30;;;10.90;99.90;;;;;;5053646;28;20322;-74
2021/10/30 12:09:15;;;;;;;16.88;11.75;;;10.90;99.90;;;;;;5053005;28;20210;-73
2021/10/30 12:11:42;;;;;;;16.33;12.30;;;10.80;99.90;;;;;;5053123;28;20226;-73
2021/10/30 12:14:09;;;;;;;17.00;11.15;;;10.80;99.90;;;;;;5053443;28;20245;-73
2021/10/30 12:16:37;;;;;;;18.52;12.60;;;10.80;99.90;;;;;;5053501;28;20203;-73
2021/10/30 12:19:04;;;;;;;17.45;13.27;;;10.70;99.90;;;;;;5053468;28;20203;-73
2021/10/30 12:21:34;;;;;;;17.10;12.77;;;10.70;99.90;;;;;;5052996;28;20318;-73
2021/10/30 12:24:02;;;;;;;21.20;12.98;;;10.70;99.90;;;;;;5053535;28;20290;-74
2021/10/30 12:26:30;;;;;;;21.05;13.10;;;10.60;99.90;;;;;;5053405;28;20207;-73
2021/10/30 12:29:13;;;;;;;17.27;13.00;;;10.70;99.90;;;;;;5053372;28;20307;-73
2021/10/30 12:31:40;;;;;;;20.15;12.95;;;10.80;99.90;;;;;;5052889;28;20709;-74
2021/10/30 12:34:15;;;;;;;20.50;12.77;;;10.90;99.90;;;;;;5053123;28;20234;-74
2021/10/30 12:36:43;;;;;;;20.67;13.93;;;10.80;99.90;;;;;;5053375;28;20564;-74
2021/10/30 12:39:20;;;;;;;19.70;13.93;;;10.70;99.90;;;;;;5053186;28;20294;-74
2021/10/30 12:41:57;;;;;;;18.52;13.38;;;10.70;99.90;;;;;;5052996;28;20570;-73
2021/10/30 12:44:26;;;;;;;23.40;14.77;;;10.70;99.90;;;;;;5053289;28;20556;-74
2021/10/30 12:46:56;;;;;;;22.27;15.40;;;10.60;99.90;;;;;;5053195;28;20208;-73
2021/10/30 12:49:28;;;;;;;23.42;15.93;;;10.60;99.90;;;;;;5053218;28;20208;-74
2021/10/30 12:52:07;;;;;;;22.00;15.57;;;10.50;99.90;;;;;;5053341;28;20254;-73